Time;durP1;ratioP1;P1;durP2;ratioP2;P2;SDS_P1;SDS_P2;PMS_P1;PMS_P2;Temp;Humidity;BMP_temperature;BMP_pressure;BME280_temperature;BME280_humidity;BME280_pressure;Samples;Min_cycle;Max_cycle;Signal;HPM_P1;HPM_P2
2022/05/11 00:01:15;;;;;;;2.20;2.10;;;23.40;63.40;;;;;;5033975;28;20465;-55
2022/05/11 00:03:42;;;;;;;3.07;2.10;;;23.40;63.70;;;;;;5033846;28;21043;-60
2022/05/11 00:06:09;;;;;;;2.37;2.27;;;23.50;63.90;;;;;;5033568;28;20935;-56
2022/05/11 00:08:36;;;;;;;1.83;1.67;;;23.40;63.90;;;;;;5033947;28;20931;-57
2022/05/11 00:11:04;;;;;;;1.53;1.53;;;23.40;64.00;;;;;;5063178;22;20491;-60
2022/05/11 00:13:31;;;;;;;2.03;1.93;;;23.40;64.10;;;;;;5045402;28;20441;-59
2022/05/11 00:15:59;;;;;;;1.70;1.60;;;23.40;64.30;;;;;;5053518;28;20992;-58
2022/05/11 00:18:26;;;;;;;1.77;1.67;;;23.40;64.40;;;;;;5053487;28;20448;-60
2022/05/11 00:20:53;;;;;;;1.73;1.63;;;23.40;64.60;;;;;;5033005;28;20472;-59
2022/05/11 00:23:20;;;;;;;2.20;2.00;;;23.40;64.70;;;;;;5033690;28;20452;-57
2022/05/11 00:25:47;;;;;;;1.90;1.80;;;23.40;64.80;;;;;;5033401;28;20445;-56
2022/05/11 00:28:14;;;;;;;2.00;1.90;;;23.40;64.90;;;;;;5033562;28;20456;-59
2022/05/11 00:30:41;;;;;;;1.80;1.70;;;23.40;64.90;;;;;;5032878;28;21009;-59
2022/05/11 00:33:12;;;;;;;2.10;1.90;;;23.40;64.90;;;;;;5033458;28;20464;-58
2022/05/11 00:35:39;;;;;;;1.47;1.47;;;23.40;65.00;;;;;;5033419;28;20480;-58
2022/05/11 00:38:06;;;;;;;2.00;1.90;;;23.30;65.00;;;;;;5033230;28;20437;-55
2022/05/11 00:40:34;;;;;;;2.43;2.17;;;23.40;65.10;;;;;;5033214;28;20468;-60
2022/05/11 00:43:00;;;;;;;2.40;2.10;;;23.40;65.10;;;;;;5032562;28;20973;-57
2022/05/11 00:45:27;;;;;;;2.13;1.90;;;23.30;65.00;;;;;;5033198;28;20445;-55
2022/05/11 00:47:59;;;;;;;3.20;1.70;;;23.30;65.20;;;;;;5032863;28;20445;-58
2022/05/11 00:50:30;;;;;;;2.13;1.90;;;23.30;65.30;;;;;;5033071;28;20480;-58
2022/05/11 00:52:59;;;;;;;2.03;1.90;;;23.40;65.40;;;;;;5033169;28;20536;-58
2022/05/11 00:55:30;;;;;;;1.60;1.50;;;23.30;65.40;;;;;;5032862;28;20485;-60
2022/05/11 00:58:02;;;;;;;1.97;1.87;;;23.30;66.20;;;;;;5032521;28;20442;-58
2022/05/11 01:00:30;;;;;;;1.80;1.70;;;23.30;65.60;;;;;;5033007;28;20492;-61
2022/05/11 01:03:01;;;;;;;2.20;1.90;;;23.30;65.60;;;;;;5032825;28;20441;-61
2022/05/11 01:05:29;;;;;;;2.07;1.90;;;23.30;65.60;;;;;;5032998;28;20441;-61
2022/05/11 01:07:57;;;;;;;2.27;1.83;;;23.30;65.50;;;;;;5032697;28;20449;-55
2022/05/11 01:10:26;;;;;;;1.90;1.80;;;23.30;65.70;;;;;;5032438;28;20476;-58
2022/05/11 01:12:56;;;;;;;1.40;1.40;;;23.30;65.80;;;;;;5032423;28;20449;-58
2022/05/11 01:15:23;;;;;;;2.07;1.97;;;23.30;65.80;;;;;;5032554;28;20487;-58
2022/05/11 01:17:50;;;;;;;2.00;1.93;;;23.30;65.90;;;;;;5032348;28;20440;-59
2022/05/11 01:20:19;;;;;;;2.00;1.90;;;23.30;65.90;;;;;;5032217;28;20481;-61
2022/05/11 01:22:54;;;;;;;2.07;1.90;;;23.30;66.10;;;;;;5032552;28;20445;-56
2022/05/11 01:25:23;;;;;;;1.43;1.43;;;23.30;66.20;;;;;;5032221;28;20860;-60
2022/05/11 01:27:50;;;;;;;1.50;1.40;;;23.30;66.40;;;;;;5031789;28;20452;-60
2022/05/11 01:30:21;;;;;;;3.17;1.90;;;23.30;66.60;;;;;;5032319;28;20469;-59
2022/05/11 01:32:49;;;;;;;1.67;1.57;;;23.20;66.50;;;;;;5032344;28;20934;-57
2022/05/11 01:35:29;;;;;;;6.17;1.80;;;23.20;66.70;;;;;;5032199;28;20577;-60
2022/05/11 01:38:07;;;;;;;2.07;1.80;;;23.20;66.80;;;;;;5032131;28;20822;-58
2022/05/11 01:40:36;;;;;;;2.00;1.90;;;23.30;66.90;;;;;;5031799;28;20850;-59
2022/05/11 01:43:03;;;;;;;1.63;1.60;;;23.30;67.00;;;;;;5031984;28;20453;-59
2022/05/11 01:45:30;;;;;;;2.57;1.60;;;23.20;66.90;;;;;;5032055;28;20449;-54
2022/05/11 01:47:57;;;;;;;2.07;1.97;;;23.20;66.90;;;;;;5031811;28;20826;-61
2022/05/11 01:50:25;;;;;;;1.80;1.80;;;23.20;67.00;;;;;;5031984;28;20764;-56
2022/05/11 01:52:52;;;;;;;1.70;1.60;;;23.20;67.10;;;;;;5031711;28;20445;-60
2022/05/11 01:55:19;;;;;;;2.13;2.03;;;23.20;67.20;;;;;;5011459;28;20556;-56
2022/05/11 01:57:47;;;;;;;3.43;2.00;;;23.20;67.30;;;;;;5012172;28;20456;-54
2022/05/11 02:00:14;;;;;;;1.67;1.53;;;23.20;67.20;;;;;;5012082;28;20461;-58
2022/05/11 02:02:41;;;;;;;7.20;2.17;;;23.20;67.20;;;;;;5012094;28;20456;-56
2022/05/11 02:07:52;;;;;;;1.87;1.77;;;23.20;67.20;;;;;;5012017;28;20508;-57
2022/05/11 02:10:21;;;;;;;1.77;1.43;;;23.20;67.30;;;;;;5021065;28;20854;-56
2022/05/11 02:12:50;;;;;;;3.07;1.50;;;23.20;67.20;;;;;;5031697;28;20445;-61
2022/05/11 02:15:17;;;;;;;1.80;1.70;;;23.30;67.20;;;;;;5031601;28;20473;-61
2022/05/11 02:17:45;;;;;;;2.03;1.93;;;23.30;66.90;;;;;;5031502;28;20444;-62
2022/05/11 02:20:14;;;;;;;1.63;1.63;;;23.30;66.80;;;;;;5031720;28;20559;-60
2022/05/11 02:22:41;;;;;;;1.80;1.70;;;23.30;66.60;;;;;;5031594;28;20456;-62
2022/05/11 02:25:10;;;;;;;2.00;1.90;;;23.30;66.70;;;;;;5031436;28;20931;-61
2022/05/11 02:27:37;;;;;;;1.70;1.60;;;23.30;66.60;;;;;;5031047;28;20492;-58
2022/05/11 02:30:08;;;;;;;2.43;2.30;;;23.30;66.60;;;;;;5031397;28;20544;-53
2022/05/11 02:32:35;;;;;;;1.83;1.73;;;23.30;66.40;;;;;;5031199;28;20441;-58
2022/05/11 02:35:13;;;;;;;1.70;1.60;;;23.40;66.30;;;;;;5031192;28;20445;-60
2022/05/11 02:37:41;;;;;;;1.57;1.57;;;23.40;66.20;;;;;;5031211;28;20451;-55
2022/05/11 02:40:08;;;;;;;2.43;2.30;;;23.40;66.20;;;;;;5031639;28;20473;-59
2022/05/11 02:42:35;;;;;;;2.10;2.00;;;23.40;66.20;;;;;;5031029;28;20445;-58
2022/05/11 02:45:02;;;;;;;1.97;1.87;;;23.40;66.10;;;;;;5031234;28;20475;-59
2022/05/11 02:47:30;;;;;;;2.10;2.00;;;23.40;66.10;;;;;;5031041;28;20485;-58
2022/05/11 02:49:57;;;;;;;1.43;1.40;;;23.30;66.20;;;;;;5031381;28;20445;-59
2022/05/11 02:52:24;;;;;;;1.80;1.70;;;23.40;66.30;;;;;;5031306;28;20464;-61
2022/05/11 02:54:51;;;;;;;2.47;2.30;;;23.30;66.20;;;;;;5031275;28;20445;-64
2022/05/11 02:57:18;;;;;;;2.33;2.23;;;23.30;66.30;;;;;;5031056;28;20481;-61
2022/05/11 02:59:45;;;;;;;1.80;1.70;;;23.30;66.30;;;;;;5030861;28;20453;-57
2022/05/11 03:02:12;;;;;;;1.93;1.83;;;23.40;67.10;;;;;;5031334;28;20441;-60
2022/05/11 03:04:40;;;;;;;2.10;2.00;;;23.30;66.20;;;;;;5031242;28;20837;-53
2022/05/11 03:07:07;;;;;;;2.37;2.23;;;23.30;66.20;;;;;;5033162;28;20958;-55
2022/05/11 03:09:33;;;;;;;1.83;1.70;;;23.30;66.20;;;;;;5035077;28;20445;-57
2022/05/11 03:12:01;;;;;;;1.70;1.63;;;23.30;66.40;;;;;;5034809;28;20811;-57
2022/05/11 03:14:28;;;;;;;1.90;1.80;;;23.30;66.60;;;;;;5034910;28;20503;-58
2022/05/11 03:16:55;;;;;;;2.00;1.90;;;23.30;66.80;;;;;;5034356;28;20850;-54
2022/05/11 03:19:21;;;;;;;2.17;2.07;;;23.30;66.90;;;;;;5034924;28;20448;-56
2022/05/11 03:21:50;;;;;;;3.13;1.80;;;23.30;67.00;;;;;;5034666;28;20465;-52
2022/05/11 03:24:18;;;;;;;1.77;1.67;;;23.30;67.20;;;;;;5034585;28;20445;-53
2022/05/11 03:26:44;;;;;;;1.93;1.83;;;23.30;67.30;;;;;;5034494;28;20440;-53
2022/05/11 03:29:11;;;;;;;1.83;1.73;;;23.20;67.30;;;;;;5034572;28;20938;-53
2022/05/11 03:31:39;;;;;;;1.90;1.80;;;23.30;67.60;;;;;;5034273;28;20461;-55
2022/05/11 03:36:54;;;;;;;3.23;1.80;;;23.20;67.60;;;;;;5034363;28;20579;-54
2022/05/11 03:39:20;;;;;;;2.40;2.20;;;23.20;67.70;;;;;;5034519;28;20448;-52
2022/05/11 03:41:47;;;;;;;3.20;2.90;;;23.20;67.70;;;;;;5014545;28;20844;-52
2022/05/11 03:44:14;;;;;;;2.20;2.10;;;23.20;67.70;;;;;;5014697;28;20445;-56
2022/05/11 03:46:41;;;;;;;2.20;2.10;;;23.20;67.80;;;;;;5014347;28;20946;-54
2022/05/11 03:49:09;;;;;;;2.07;1.97;;;23.20;68.00;;;;;;5023950;28;20814;-52
2022/05/11 03:51:36;;;;;;;2.17;2.07;;;23.20;68.00;;;;;;5034137;28;20480;-52
2022/05/11 03:54:04;;;;;;;2.10;1.97;;;23.20;68.10;;;;;;5034270;28;20445;-54
2022/05/11 03:56:31;;;;;;;1.90;1.80;;;23.20;68.10;;;;;;5033803;28;21012;-55
2022/05/11 03:58:58;;;;;;;1.50;1.40;;;23.20;68.30;;;;;;5034135;28;20444;-57
2022/05/11 04:01:25;;;;;;;1.60;1.60;;;23.20;68.30;;;;;;5033847;28;20965;-53
2022/05/11 04:03:52;;;;;;;2.13;2.00;;;23.20;68.40;;;;;;5034026;28;20890;-55
2022/05/11 04:06:19;;;;;;;2.30;2.20;;;23.20;68.50;;;;;;5033680;28;20442;-55
2022/05/11 04:08:45;;;;;;;2.40;2.20;;;23.20;68.60;;;;;;5033864;28;20452;-52
2022/05/11 04:11:14;;;;;;;1.97;1.87;;;23.20;68.80;;;;;;5033457;28;20974;-55
2022/05/11 04:13:41;;;;;;;2.20;2.03;;;23.10;68.70;;;;;;5033777;28;20453;-52
2022/05/11 04:16:08;;;;;;;2.60;2.40;;;23.10;68.90;;;;;;5033439;28;20539;-54
2022/05/11 04:18:35;;;;;;;2.73;2.63;;;23.10;69.00;;;;;;5032849;28;20456;-53
2022/05/11 04:21:04;;;;;;;2.47;2.27;;;23.10;69.00;;;;;;5033029;28;20963;-53
2022/05/11 04:23:30;;;;;;;2.37;2.10;;;23.10;69.20;;;;;;5033672;28;20927;-56
2022/05/11 04:25:57;;;;;;;2.37;2.27;;;23.10;69.20;;;;;;5033452;28;20449;-53
2022/05/11 04:28:25;;;;;;;2.47;2.30;;;23.10;69.30;;;;;;5033599;28;20449;-57
2022/05/11 04:30:59;;;;;;;2.53;2.00;;;23.10;69.40;;;;;;5033493;28;20461;-54
2022/05/11 04:33:26;;;;;;;2.33;2.20;;;23.10;69.50;;;;;;5033574;28;20445;-54
2022/05/11 04:35:53;;;;;;;3.97;2.40;;;23.10;69.70;;;;;;5033152;28;20449;-55
2022/05/11 04:38:19;;;;;;;2.80;2.03;;;23.10;69.80;;;;;;5033081;28;20814;-57
2022/05/11 04:40:46;;;;;;;3.67;2.37;;;23.10;69.80;;;;;;5033448;28;20468;-53
2022/05/11 04:43:13;;;;;;;4.07;2.60;;;23.10;69.80;;;;;;5033225;28;20445;-57
2022/05/11 04:45:43;;;;;;;3.07;2.77;;;23.10;69.90;;;;;;5032904;28;20900;-54
2022/05/11 04:48:10;;;;;;;2.17;2.07;;;23.10;70.00;;;;;;5033024;28;20957;-58
2022/05/11 04:50:38;;;;;;;2.10;2.00;;;23.10;70.20;;;;;;5033099;28;20472;-61
2022/05/11 04:53:06;;;;;;;2.50;2.40;;;23.10;70.40;;;;;;5033175;28;20445;-61
2022/05/11 04:55:32;;;;;;;2.40;2.27;;;23.10;70.20;;;;;;5033188;28;20472;-61
2022/05/11 04:57:59;;;;;;;3.50;2.40;;;23.10;70.60;;;;;;5032898;28;20484;-58
2022/05/11 05:00:26;;;;;;;2.60;2.50;;;23.10;70.90;;;;;;5032864;28;20465;-60
2022/05/11 05:02:54;;;;;;;3.70;2.47;;;23.10;71.10;;;;;;5033032;28;20475;-56
2022/05/11 05:05:21;;;;;;;2.50;2.30;;;23.10;71.30;;;;;;5033010;28;20445;-60
2022/05/11 05:07:48;;;;;;;2.37;2.20;;;23.10;71.50;;;;;;5032605;28;20464;-60
2022/05/11 05:10:16;;;;;;;2.23;2.23;;;23.10;71.60;;;;;;5032505;28;20484;-61
2022/05/11 05:12:44;;;;;;;2.47;2.33;;;23.10;71.70;;;;;;5032825;28;20890;-59
2022/05/11 05:15:12;;;;;;;1.70;1.60;;;23.10;71.80;;;;;;5032628;28;20446;-58
2022/05/11 05:17:39;;;;;;;2.77;2.63;;;23.10;71.90;;;;;;5032466;28;20477;-58
2022/05/11 05:20:09;;;;;;;2.60;2.40;;;23.10;72.20;;;;;;5032434;28;20484;-61
2022/05/11 05:22:36;;;;;;;1.80;1.70;;;23.10;72.10;;;;;;5032452;28;20965;-61
2022/05/11 05:25:04;;;;;;;3.70;2.50;;;23.10;72.30;;;;;;5032474;28;20820;-61
2022/05/11 05:27:31;;;;;;;2.30;2.20;;;23.10;72.40;;;;;;5032352;28;20468;-62
2022/05/11 05:32:44;;;;;;;2.20;2.10;;;23.20;71.90;;;;;;5032441;28;20464;-66
2022/05/11 05:35:14;;;;;;;2.33;2.23;;;23.20;71.50;;;;;;5032105;28;20445;-60
2022/05/11 05:37:41;;;;;;;2.30;2.20;;;23.20;71.70;;;;;;5032042;28;20485;-59
2022/05/11 05:40:09;;;;;;;2.77;2.57;;;23.30;71.80;;;;;;5032101;28;20989;-56
2022/05/11 05:42:36;;;;;;;2.27;2.17;;;23.30;72.40;;;;;;5032135;28;20441;-53
2022/05/11 05:45:05;;;;;;;2.93;2.73;;;23.30;71.90;;;;;;5031768;28;20807;-52
2022/05/11 05:47:31;;;;;;;3.57;3.00;;;23.30;71.50;;;;;;5031934;28;20444;-54
2022/05/11 05:49:58;;;;;;;9.27;3.97;;;23.30;71.40;;;;;;5032071;28;20445;-54
2022/05/11 05:52:28;;;;;;;2.80;2.70;;;23.40;72.00;;;;;;5031685;28;20449;-53
2022/05/11 05:54:58;;;;;;;6.90;3.20;;;23.40;72.60;;;;;;5031971;28;20449;-55
2022/05/11 05:57:26;;;;;;;6.87;3.70;;;23.40;73.00;;;;;;5031384;28;20813;-52
2022/05/11 05:59:54;;;;;;;10.73;6.10;;;23.50;80.00;;;;;;5031319;28;20524;-51
2022/05/11 06:02:20;;;;;;;8.93;5.20;;;23.50;84.30;;;;;;5031881;28;20956;-50
2022/05/11 06:04:51;;;;;;;7.50;5.20;;;23.50;79.70;;;;;;5031890;28;20449;-52
2022/05/11 06:07:19;;;;;;;9.90;5.87;;;23.50;80.20;;;;;;5031661;28;20441;-58
2022/05/11 06:09:47;;;;;;;7.53;4.60;;;23.50;85.80;;;;;;5030955;28;20445;-53
2022/05/11 06:12:16;;;;;;;8.13;4.00;;;23.50;87.70;;;;;;5073180;22;20494;-60
2022/05/11 06:14:44;;;;;;;6.37;3.80;;;23.50;91.00;;;;;;5051503;28;20437;-63
2022/05/11 06:17:16;;;;;;;4.80;3.63;;;23.50;91.20;;;;;;5051381;28;20476;-62
2022/05/11 06:19:43;;;;;;;6.77;3.83;;;23.50;90.60;;;;;;5051577;28;20444;-62
2022/05/11 06:22:10;;;;;;;7.60;3.90;;;23.50;90.20;;;;;;5051127;28;20837;-62
2022/05/11 06:24:37;;;;;;;6.43;4.07;;;23.50;90.20;;;;;;5051488;28;20517;-61
2022/05/11 06:27:07;;;;;;;8.07;4.10;;;23.50;89.20;;;;;;5051204;28;20471;-62
2022/05/11 06:29:33;;;;;;;4.93;4.03;;;23.50;88.10;;;;;;5051489;28;20451;-59
2022/05/11 06:32:00;;;;;;;7.10;3.37;;;23.50;86.10;;;;;;5051390;28;20841;-63
2022/05/11 06:34:27;;;;;;;8.80;4.90;;;23.50;84.90;;;;;;5051456;28;20451;-61
2022/05/11 06:36:54;;;;;;;8.77;4.20;;;23.50;84.60;;;;;;5051141;28;20479;-60
2022/05/11 06:39:21;;;;;;;7.77;4.90;;;23.50;83.10;;;;;;5051449;28;20447;-62
2022/05/11 06:41:48;;;;;;;6.70;3.53;;;23.40;82.60;;;;;;5053117;28;20467;-61
2022/05/11 06:44:16;;;;;;;5.43;3.37;;;23.40;81.60;;;;;;5055577;28;20944;-63
2022/05/11 06:46:44;;;;;;;4.37;3.40;;;23.40;81.80;;;;;;5055160;28;20568;-62
2022/05/11 06:49:11;;;;;;;4.57;2.83;;;23.50;81.30;;;;;;5055393;28;20523;-61
2022/05/11 06:51:38;;;;;;;3.60;3.40;;;23.40;81.50;;;;;;5055190;28;20460;-61
2022/05/11 06:59:34;;;;;;;3.57;3.13;;;23.40;80.50;;;;;;5055185;28;20557;-59
2022/05/11 07:02:04;;;;;;;8.07;3.97;;;23.40;80.30;;;;;;5055026;28;20472;-60
2022/05/11 07:04:33;;;;;;;5.43;3.23;;;23.40;79.70;;;;;;5055136;28;20941;-62
2022/05/11 07:07:01;;;;;;;4.27;3.20;;;23.40;79.50;;;;;;5054822;28;20447;-61
2022/05/11 07:09:31;;;;;;;5.57;3.40;;;23.40;78.70;;;;;;5054927;28;20443;-62
2022/05/11 07:14:43;;;;;;;5.23;3.67;;;23.40;78.80;;;;;;5054999;28;20446;-62
2022/05/11 07:17:10;;;;;;;6.47;3.23;;;23.40;78.20;;;;;;5054445;28;20486;-63
2022/05/11 07:19:42;;;;;;;7.10;3.27;;;23.40;78.10;;;;;;5054798;28;20444;-63
2022/05/11 07:22:09;;;;;;;4.03;3.63;;;23.40;77.80;;;;;;5054745;28;20467;-62
2022/05/11 07:24:35;;;;;;;6.57;3.50;;;23.40;77.70;;;;;;5054692;28;20444;-61
2022/05/11 07:27:02;;;;;;;3.10;2.90;;;23.40;77.40;;;;;;5054453;28;20440;-62
2022/05/11 07:29:29;;;;;;;6.63;3.60;;;23.40;76.80;;;;;;5054571;28;20452;-61
2022/05/11 07:31:57;;;;;;;8.23;3.23;;;23.40;76.60;;;;;;5054562;28;20491;-61
2022/05/11 07:34:24;;;;;;;5.57;3.10;;;23.40;76.50;;;;;;5054489;28;20930;-62
2022/05/11 07:36:54;;;;;;;4.63;3.57;;;23.40;76.50;;;;;;5054117;28;20444;-63
2022/05/11 07:39:21;;;;;;;7.17;2.83;;;23.40;76.20;;;;;;5054443;28;20439;-63
2022/05/11 07:41:48;;;;;;;3.80;2.53;;;23.40;76.20;;;;;;5054247;28;20819;-62
2022/05/11 07:44:15;;;;;;;3.07;2.77;;;23.40;76.00;;;;;;5054304;28;20817;-63
2022/05/11 07:46:42;;;;;;;3.67;2.20;;;23.40;75.70;;;;;;5054061;28;20550;-62
2022/05/11 07:49:11;;;;;;;5.13;3.70;;;23.40;75.50;;;;;;5054214;28;20802;-62
2022/05/11 07:51:41;;;;;;;3.90;2.60;;;23.40;75.20;;;;;;5054195;28;20514;-62
2022/05/11 07:54:08;;;;;;;2.43;1.90;;;23.40;75.20;;;;;;5052913;28;20540;-61
2022/05/11 08:02:04;;;;;;;3.40;3.07;;;23.40;74.70;;;;;;5054010;28;20602;-62
2022/05/11 08:04:32;;;;;;;3.40;3.20;;;23.40;74.60;;;;;;5053941;28;20443;-63
2022/05/11 08:06:59;;;;;;;4.37;2.70;;;23.40;74.40;;;;;;5053716;28;20797;-61
2022/05/11 08:09:26;;;;;;;3.43;2.73;;;23.40;74.30;;;;;;5053857;28;20498;-62
2022/05/11 08:11:55;;;;;;;2.30;2.20;;;23.40;74.20;;;;;;5053545;28;20483;-62
2022/05/11 08:14:22;;;;;;;2.43;2.27;;;23.40;74.10;;;;;;5053757;28;20444;-62
2022/05/11 08:16:52;;;;;;;2.33;2.20;;;23.40;74.00;;;;;;5053374;28;20449;-63
2022/05/11 08:19:19;;;;;;;2.50;2.30;;;23.40;73.90;;;;;;5053677;28;20448;-64
2022/05/11 08:21:47;;;;;;;4.27;2.70;;;23.40;73.90;;;;;;5053529;28;20475;-63
2022/05/11 08:24:15;;;;;;;4.83;2.80;;;23.40;73.70;;;;;;5053533;28;20972;-61
2022/05/11 08:26:42;;;;;;;1.97;1.87;;;23.40;73.50;;;;;;5053319;28;20547;-62
2022/05/11 08:29:10;;;;;;;2.30;1.90;;;23.40;73.50;;;;;;5053481;28;20448;-62
2022/05/11 08:34:35;;;;;;;2.43;2.23;;;23.40;73.10;;;;;;4991838;28;20423;-64
2022/05/11 08:37:04;;;;;;;2.50;2.33;;;23.40;73.00;;;;;;4991322;28;20560;-62
2022/05/11 08:39:30;;;;;;;2.40;2.20;;;23.40;73.00;;;;;;5018433;28;20447;-62
2022/05/11 08:41:58;;;;;;;2.50;2.10;;;23.40;72.80;;;;;;5053161;28;20468;-62
2022/05/11 08:44:32;;;;;;;2.20;2.00;;;23.40;72.80;;;;;;5053218;28;20506;-62
2022/05/11 08:47:06;;;;;;;2.83;2.63;;;23.40;72.70;;;;;;5052988;28;20510;-63
2022/05/11 08:49:45;;;;;;;2.57;2.37;;;23.40;72.50;;;;;;5053224;28;20816;-62
2022/05/11 08:52:18;;;;;;;2.27;2.17;;;23.40;72.40;;;;;;5052983;28;20467;-62
2022/05/11 08:54:48;;;;;;;2.10;2.00;;;23.40;72.40;;;;;;5052914;28;20436;-62
2022/05/11 08:57:18;;;;;;;2.00;1.90;;;23.40;72.30;;;;;;5052660;28;20447;-62
2022/05/11 08:59:46;;;;;;;1.73;1.63;;;23.40;72.10;;;;;;5052937;28;20878;-62
2022/05/11 09:02:23;;;;;;;1.80;1.70;;;23.40;72.10;;;;;;5052801;28;20503;-63
2022/05/11 09:04:53;;;;;;;1.93;1.73;;;23.40;72.00;;;;;;5052477;28;20926;-62
2022/05/11 09:07:21;;;;;;;1.73;1.63;;;23.40;71.90;;;;;;5052544;28;20937;-62
2022/05/11 09:09:51;;;;;;;2.17;1.77;;;23.40;71.70;;;;;;5052663;28;20441;-63
2022/05/11 09:12:19;;;;;;;1.73;1.63;;;23.40;71.70;;;;;;5052673;28;20499;-61
2022/05/11 09:14:49;;;;;;;3.10;2.70;;;23.40;71.60;;;;;;5052541;28;20482;-62
2022/05/11 09:17:25;;;;;;;2.20;2.10;;;23.40;71.60;;;;;;5052236;28;20837;-64
2022/05/11 09:20:05;;;;;;;2.13;1.67;;;23.50;71.60;;;;;;5052627;28;20867;-63
2022/05/11 09:22:34;;;;;;;2.10;2.00;;;23.40;71.50;;;;;;5052403;28;20471;-63
2022/05/11 09:25:05;;;;;;;2.03;1.83;;;23.40;71.30;;;;;;5052443;28;20444;-61
2022/05/11 09:27:34;;;;;;;2.20;2.00;;;23.40;71.30;;;;;;5052207;28;20444;-63
2022/05/11 09:30:04;;;;;;;1.83;1.60;;;23.40;71.20;;;;;;5052305;28;20806;-62
2022/05/11 09:32:35;;;;;;;1.93;1.83;;;23.40;71.10;;;;;;5052236;28;20949;-62
2022/05/11 09:35:24;;;;;;;1.70;1.43;;;23.40;71.00;;;;;;5052315;28;20452;-62
2022/05/11 09:37:59;;;;;;;1.83;1.73;;;23.40;70.90;;;;;;5051873;28;20484;-62
2022/05/11 09:40:27;;;;;;;3.63;2.00;;;23.50;71.10;;;;;;5051945;28;20470;-61
2022/05/11 09:42:59;;;;;;;1.30;1.20;;;23.50;71.00;;;;;;5052079;28;20451;-62
2022/05/11 09:45:45;;;;;;;1.67;1.57;;;23.40;70.80;;;;;;5052140;28;21087;-64
2022/05/11 09:48:22;;;;;;;1.23;1.23;;;23.50;71.60;;;;;;5052064;28;20506;-62
2022/05/11 09:50:53;;;;;;;2.50;1.37;;;23.50;70.80;;;;;;5051922;28;20482;-62
2022/05/11 09:53:39;;;;;;;1.67;1.57;;;23.50;70.70;;;;;;5051898;28;20506;-62
2022/05/11 09:56:18;;;;;;;1.47;1.47;;;23.50;70.70;;;;;;5052024;28;20857;-60
2022/05/11 09:58:45;;;;;;;2.67;1.97;;;23.50;70.70;;;;;;5051737;28;20503;-62
2022/05/11 10:01:15;;;;;;;1.50;1.40;;;23.50;70.50;;;;;;5051804;28;20491;-63
2022/05/11 10:03:48;;;;;;;1.80;1.70;;;23.50;70.60;;;;;;5051919;28;20953;-62
2022/05/11 10:06:18;;;;;;;1.70;1.60;;;23.50;70.40;;;;;;5051581;28;20948;-63
2022/05/11 10:08:48;;;;;;;1.93;1.73;;;23.50;70.30;;;;;;5051705;28;20440;-61
2022/05/11 10:11:19;;;;;;;1.77;1.67;;;23.50;70.30;;;;;;5051735;28;20542;-62
2022/05/11 10:13:53;;;;;;;2.10;1.50;;;23.50;70.20;;;;;;5051597;28;20443;-63
2022/05/11 10:22:15;;;;;;;1.17;1.17;;;23.50;70.00;;;;;;5051550;28;20497;-62
2022/05/11 10:25:02;;;;;;;1.60;1.50;;;23.50;70.00;;;;;;5051727;28;20447;-61
2022/05/11 10:27:34;;;;;;;2.10;2.00;;;23.50;70.00;;;;;;5051265;28;20444;-63
2022/05/11 10:30:14;;;;;;;1.80;1.70;;;23.60;70.10;;;;;;5051453;28;20448;-63
2022/05/11 10:33:00;;;;;;;1.57;1.57;;;23.60;69.90;;;;;;5051636;28;20448;-63
2022/05/11 10:35:32;;;;;;;3.63;2.00;;;23.60;69.90;;;;;;5051440;28;20798;-62
2022/05/11 10:38:17;;;;;;;1.50;1.40;;;23.60;69.90;;;;;;5051282;28;20483;-63
2022/05/11 10:40:54;;;;;;;2.33;2.27;;;23.60;69.80;;;;;;5051361;28;20472;-63
2022/05/11 10:43:38;;;;;;;1.73;1.60;;;23.60;69.80;;;;;;5051362;28;20925;-62
2022/05/11 10:46:12;;;;;;;1.80;1.70;;;23.60;69.70;;;;;;5051233;28;20471;-62
2022/05/11 10:48:55;;;;;;;1.40;1.30;;;23.60;69.70;;;;;;5051257;28;20917;-61
2022/05/11 10:51:30;;;;;;;3.50;2.70;;;23.60;69.70;;;;;;5051205;28;20475;-61
2022/05/11 10:54:05;;;;;;;1.70;1.60;;;23.60;69.60;;;;;;5051310;28;20773;-63
2022/05/11 10:56:46;;;;;;;1.47;1.37;;;23.60;69.50;;;;;;5051087;28;20443;-62
2022/05/11 10:59:52;;;;;;;1.70;1.60;;;23.60;69.50;;;;;;5051229;28;20846;-62
2022/05/11 11:02:54;;;;;;;1.40;1.40;;;23.60;69.40;;;;;;4970181;28;21035;-62
2022/05/11 11:05:29;;;;;;;1.47;1.40;;;23.60;69.40;;;;;;4970173;28;20810;-61
2022/05/11 11:08:08;;;;;;;1.70;1.60;;;23.60;69.30;;;;;;5032920;28;20431;-63
2022/05/11 11:10:42;;;;;;;1.50;1.50;;;23.60;69.30;;;;;;5050862;28;20472;-63
2022/05/11 11:13:38;;;;;;;1.50;1.50;;;23.60;69.20;;;;;;5051160;28;20440;-61
2022/05/11 11:16:09;;;;;;;1.23;1.17;;;23.60;69.10;;;;;;5050924;28;20945;-62
2022/05/11 11:18:41;;;;;;;2.30;1.20;;;23.60;69.00;;;;;;5050897;28;20484;-62
2022/05/11 11:21:10;;;;;;;1.33;1.27;;;23.60;69.00;;;;;;5051026;28;20464;-62
2022/05/11 11:23:39;;;;;;;1.30;1.30;;;23.70;69.00;;;;;;5050958;28;20452;-62
2022/05/11 11:26:09;;;;;;;1.30;1.23;;;23.70;68.80;;;;;;5050756;28;20444;-62
2022/05/11 11:29:09;;;;;;;1.20;1.20;;;23.70;68.80;;;;;;5053725;28;20451;-64
2022/05/11 11:32:02;;;;;;;1.53;1.53;;;23.70;68.70;;;;;;5054537;28;20467;-64
2022/05/11 11:34:31;;;;;;;1.40;1.30;;;23.70;68.50;;;;;;5054481;28;20440;-63
2022/05/11 11:36:59;;;;;;;1.00;1.00;;;23.70;68.50;;;;;;5054500;28;20490;-64
2022/05/11 11:39:52;;;;;;;0.87;0.87;;;23.70;68.50;;;;;;5054328;28;20488;-63
2022/05/11 11:42:35;;;;;;;1.43;1.33;;;23.70;68.40;;;;;;5054317;28;20500;-61
2022/05/11 11:45:04;;;;;;;1.30;1.30;;;23.70;68.30;;;;;;5054539;28;20509;-62
2022/05/11 11:47:41;;;;;;;1.63;1.57;;;23.70;68.30;;;;;;5054097;28;20440;-64
2022/05/11 11:50:34;;;;;;;1.37;1.33;;;23.70;68.20;;;;;;5054230;28;20451;-62
2022/05/11 11:53:12;;;;;;;1.20;1.20;;;23.70;68.10;;;;;;5054113;28;20444;-63
2022/05/11 11:55:40;;;;;;;1.40;1.23;;;23.80;68.20;;;;;;5054052;28;20988;-63
2022/05/11 11:58:18;;;;;;;1.00;1.00;;;23.80;68.10;;;;;;5053913;28;20452;-63
2022/05/11 12:01:06;;;;;;;1.00;1.00;;;23.80;68.10;;;;;;5053961;28;20456;-57
2022/05/11 12:03:38;;;;;;;1.33;1.33;;;23.80;67.90;;;;;;5053986;28;20432;-54
2022/05/11 12:17:26;;;;;;;1.20;1.20;;;23.80;67.60;;;;;;5053615;28;20508;-64
2022/05/11 12:20:01;;;;;;;1.20;1.20;;;23.80;67.60;;;;;;5053637;28;20567;-64
2022/05/11 12:22:29;;;;;;;1.47;1.47;;;23.90;67.70;;;;;;5053754;28;20836;-64
2022/05/11 12:25:01;;;;;;;1.60;1.50;;;23.90;67.60;;;;;;5053656;28;20846;-63
2022/05/11 12:27:31;;;;;;;1.50;1.40;;;23.90;67.50;;;;;;5053345;28;20929;-64
2022/05/11 12:30:00;;;;;;;1.27;1.20;;;23.90;67.50;;;;;;5053644;28;20949;-64
2022/05/11 12:32:29;;;;;;;1.30;1.30;;;23.90;67.50;;;;;;5053454;28;20471;-64
2022/05/11 12:35:06;;;;;;;1.13;1.13;;;23.90;67.40;;;;;;5053439;28;20444;-63
2022/05/11 12:37:36;;;;;;;1.03;1.03;;;23.90;67.40;;;;;;5053149;28;20797;-61
2022/05/11 12:40:07;;;;;;;1.20;1.20;;;24.00;67.50;;;;;;5052517;28;20476;-56
2022/05/11 12:42:40;;;;;;;0.97;0.97;;;24.00;67.40;;;;;;5053497;28;20443;-64
2022/05/11 12:45:11;;;;;;;1.27;1.27;;;24.00;67.40;;;;;;5053240;28;20467;-64
2022/05/11 12:47:41;;;;;;;1.00;1.00;;;24.00;67.30;;;;;;5052795;28;20449;-62
2022/05/11 12:50:16;;;;;;;1.10;1.00;;;24.00;67.30;;;;;;5053226;28;20437;-63
2022/05/11 12:52:42;;;;;;;1.10;1.10;;;24.00;67.30;;;;;;5053151;28;20443;-63
2022/05/11 12:55:09;;;;;;;1.30;1.30;;;24.00;67.30;;;;;;5053010;28;20444;-62
2022/05/11 12:57:39;;;;;;;1.30;1.30;;;24.10;67.40;;;;;;5052866;28;20447;-62
2022/05/11 13:00:14;;;;;;;1.20;1.20;;;24.10;67.40;;;;;;5052813;28;20486;-64
2022/05/11 13:02:42;;;;;;;1.37;1.27;;;24.10;67.40;;;;;;5052963;28;20467;-64
2022/05/11 13:05:14;;;;;;;2.10;1.30;;;24.10;67.40;;;;;;5051639;28;20502;-61
2022/05/11 13:07:47;;;;;;;1.90;1.13;;;24.20;67.50;;;;;;5052463;28;20455;-63
2022/05/11 13:10:17;;;;;;;7.20;2.67;;;24.20;69.30;;;;;;5052575;28;20945;-63
2022/05/11 13:12:49;;;;;;;3.37;2.27;;;24.20;70.00;;;;;;5052857;28;20440;-63
2022/05/11 13:15:31;;;;;;;2.77;2.57;;;24.20;70.80;;;;;;5052393;28;20451;-62
2022/05/11 13:17:58;;;;;;;2.10;2.00;;;24.20;69.90;;;;;;5052504;28;20439;-66
2022/05/11 13:20:28;;;;;;;3.30;1.60;;;24.30;71.30;;;;;;5052359;28;20488;-62
2022/05/11 13:22:57;;;;;;;2.40;2.20;;;24.30;72.00;;;;;;5052555;28;20440;-63
2022/05/11 13:25:41;;;;;;;2.40;2.20;;;24.30;71.80;;;;;;5052197;28;20811;-63
2022/05/11 13:28:14;;;;;;;2.10;1.90;;;24.40;71.10;;;;;;5051840;28;20448;-64
2022/05/11 13:30:44;;;;;;;2.20;2.00;;;24.50;71.90;;;;;;5051208;28;20463;-60
2022/05/11 13:33:46;;;;;;;2.07;1.90;;;24.50;72.20;;;;;;5052245;28;20952;-60
2022/05/11 13:36:22;;;;;;;2.23;2.13;;;24.50;72.30;;;;;;5052210;28;20836;-63
2022/05/11 13:38:54;;;;;;;3.30;2.43;;;24.50;72.40;;;;;;5051808;28;20476;-64
2022/05/11 13:41:28;;;;;;;2.67;2.47;;;24.50;72.40;;;;;;5052145;28;20468;-65
2022/05/11 13:43:56;;;;;;;1.80;1.80;;;24.50;71.80;;;;;;5052184;28;20562;-66
2022/05/11 13:46:37;;;;;;;2.00;1.90;;;24.50;71.50;;;;;;5051863;28;20448;-56